Time;durP1;ratioP1;P1;durP2;ratioP2;P2;SDS_P1;SDS_P2;PMS_P1;PMS_P2;Temp;Humidity;BMP_temperature;BMP_pressure;BME280_temperature;BME280_humidity;BME280_pressure;Samples;Min_cycle;Max_cycle;Signal;HPM_P1;HPM_P2
2023/07/16 00:01:08;;;;;;;7.70;4.60;;;;;;;22.18;66.02;97688.75;106769;1282;25298;-77
2023/07/16 00:03:55;;;;;;;14.40;4.90;;;;;;;22.15;65.82;97685.96;106413;1282;22563;-78
2023/07/16 00:06:22;;;;;;;6.70;4.80;;;;;;;22.10;65.80;97685.75;106786;1282;22938;-78
2023/07/16 00:08:48;;;;;;;4.90;4.10;;;;;;;22.07;66.44;97681.11;106791;1282;22535;-78
2023/07/16 00:11:15;;;;;;;5.70;4.60;;;;;;;22.09;66.29;97680.11;106742;1282;23159;-78
2023/07/16 00:13:47;;;;;;;5.80;4.40;;;;;;;22.09;66.26;97683.08;106735;1282;22671;-77
2023/07/16 00:16:14;;;;;;;7.40;4.70;;;;;;;22.11;66.20;97689.83;106650;1282;22549;-77
2023/07/16 00:18:44;;;;;;;7.10;4.30;;;;;;;22.08;66.19;97688.48;106689;1282;22576;-78
2023/07/16 00:21:10;;;;;;;5.50;4.70;;;;;;;22.03;66.44;97686.58;106874;1282;24245;-77
2023/07/16 00:23:37;;;;;;;6.90;4.80;;;;;;;22.01;66.48;97679.27;106880;1282;25395;-77
2023/07/16 00:26:03;;;;;;;8.40;4.70;;;;;;;21.97;66.52;97675.78;106876;1282;22585;-79
2023/07/16 00:28:30;;;;;;;7.40;5.20;;;;;;;21.93;66.43;97675.66;106802;1282;22551;-79
2023/07/16 00:30:57;;;;;;;5.80;4.70;;;;;;;21.90;66.69;97672.50;106704;1281;25288;-78
2023/07/16 00:33:24;;;;;;;5.40;4.90;;;;;;;21.86;66.62;97673.02;106480;1282;22702;-78
2023/07/16 00:35:51;;;;;;;6.80;4.80;;;;;;;21.84;66.59;97672.54;106751;1282;22529;-80
2023/07/16 00:38:18;;;;;;;8.00;5.30;;;;;;;21.84;66.65;97666.11;106784;1281;25374;-79
2023/07/16 00:40:46;;;;;;;5.90;4.30;;;;;;;21.84;66.90;97666.58;106777;1282;22549;-79
2023/07/16 00:43:13;;;;;;;6.30;5.00;;;;;;;21.86;66.84;97663.23;106718;1282;22800;-80
2023/07/16 00:45:41;;;;;;;6.50;5.00;;;;;;;21.87;66.68;97662.13;106728;1282;22680;-79
2023/07/16 00:48:08;;;;;;;7.60;5.20;;;;;;;21.85;66.69;97662.90;106712;1282;24391;-79
2023/07/16 00:50:39;;;;;;;6.60;5.00;;;;;;;21.82;66.69;97664.44;106582;1282;25406;-79
2023/07/16 00:53:07;;;;;;;5.80;5.00;;;;;;;21.83;67.03;97665.63;106793;1282;22754;-79
2023/07/16 00:55:35;;;;;;;6.00;4.80;;;;;;;21.86;67.18;97664.88;106723;1282;22569;-79
2023/07/16 00:58:05;;;;;;;6.30;5.10;;;;;;;21.87;67.21;97665.35;106688;1281;22540;-79
2023/07/16 01:00:34;;;;;;;6.90;4.80;;;;;;;21.87;67.26;97661.27;106799;1282;22662;-80
2023/07/16 01:03:05;;;;;;;6.20;4.90;;;;;;;21.90;67.14;97664.35;106900;1282;22536;-76
2023/07/16 01:05:39;;;;;;;6.90;5.10;;;;;;;21.86;67.07;97660.16;106496;1282;24278;-75
2023/07/16 01:08:09;;;;;;;6.60;5.40;;;;;;;21.78;67.10;97657.98;106371;1282;25457;-75
2023/07/16 01:10:38;;;;;;;7.20;5.70;;;;;;;21.64;67.27;97656.84;106304;1282;26783;-75
2023/07/16 01:13:05;;;;;;;5.70;5.00;;;;;;;21.51;67.39;97654.83;106256;1282;23943;-75
2023/07/16 01:15:32;;;;;;;7.60;5.20;;;;;;;21.39;67.73;97654.56;106335;1282;22562;-75
2023/07/16 01:18:00;;;;;;;5.20;4.20;;;;;;;21.31;67.78;97652.73;106313;1282;25411;-75
2023/07/16 01:20:27;;;;;;;6.50;4.80;;;;;;;21.30;68.36;97648.71;106289;1282;22712;-75
2023/07/16 01:23:04;;;;;;;6.30;5.40;;;;;;;21.30;68.59;97651.92;106311;1282;22571;-75
2023/07/16 01:25:44;;;;;;;7.20;5.30;;;;;;;21.31;68.39;97647.72;106363;1282;25372;-76
2023/07/16 01:28:34;;;;;;;7.00;4.80;;;;;;;21.29;68.47;97647.06;106256;1281;22549;-75
2023/07/16 01:31:01;;;;;;;5.00;4.60;;;;;;;21.27;68.89;97640.94;106238;1282;22632;-75
2023/07/16 01:33:28;;;;;;;5.80;4.60;;;;;;;21.25;68.54;97636.54;106289;1282;24383;-75
2023/07/16 01:35:57;;;;;;;6.80;4.90;;;;;;;21.23;68.69;97631.67;106295;1281;25419;-75
2023/07/16 01:38:24;;;;;;;10.50;5.20;;;;;;;21.19;68.79;97629.82;106373;1282;24207;-75
2023/07/16 01:40:51;;;;;;;8.70;5.30;;;;;;;21.15;69.06;97623.02;106338;1282;26255;-75
2023/07/16 01:43:17;;;;;;;8.30;4.60;;;;;;;21.13;69.09;97618.70;106304;1282;22632;-75
2023/07/16 01:45:46;;;;;;;7.40;5.70;;;;;;;21.12;69.33;97619.70;106267;1282;22650;-75
2023/07/16 01:48:24;;;;;;;7.30;5.20;;;;;;;21.06;69.68;97621.70;106295;1266;24338;-76
2023/07/16 01:50:50;;;;;;;7.10;6.10;;;;;;;21.00;69.91;97626.39;106238;1282;22561;-76
2023/07/16 01:53:17;;;;;;;7.60;5.90;;;;;;;20.88;70.00;97623.36;106296;1282;25368;-76
2023/07/16 01:55:45;;;;;;;7.00;5.80;;;;;;;20.77;70.25;97625.81;106733;1282;22573;-77
2023/07/16 01:58:11;;;;;;;7.30;5.50;;;;;;;20.66;70.44;97624.66;106767;1282;24272;-77
2023/07/16 02:00:38;;;;;;;9.00;5.60;;;;;;;20.63;70.46;97629.55;106483;1282;22787;-77
2023/07/16 02:03:05;;;;;;;6.70;5.00;;;;;;;20.63;70.41;97631.83;106223;1282;25516;-77
2023/07/16 02:05:33;;;;;;;5.40;4.50;;;;;;;20.68;70.62;97631.96;106449;1282;22556;-77
2023/07/16 02:07:59;;;;;;;8.10;4.70;;;;;;;20.74;70.73;97631.80;106300;1282;22543;-76
2023/07/16 02:10:26;;;;;;;6.50;5.00;;;;;;;20.80;70.74;97636.02;106303;1282;22542;-76
2023/07/16 02:12:52;;;;;;;6.80;5.20;;;;;;;20.83;70.57;97637.01;106582;1282;22580;-76
2023/07/16 02:15:19;;;;;;;7.80;4.90;;;;;;;20.84;70.52;97638.49;106299;1282;25385;-75
2023/07/16 02:17:47;;;;;;;6.00;5.20;;;;;;;20.85;70.52;97634.98;106301;1271;22538;-76
2023/07/16 02:20:15;;;;;;;5.90;4.70;;;;;;;20.85;70.50;97632.02;106344;1282;22555;-75
2023/07/16 02:22:42;;;;;;;6.20;4.10;;;;;;;20.84;70.57;97630.67;106297;1282;22756;-75
2023/07/16 02:25:09;;;;;;;7.50;5.40;;;;;;;20.81;70.77;97624.30;106333;1282;22543;-76
2023/07/16 02:27:35;;;;;;;6.70;5.20;;;;;;;20.82;71.08;97619.70;106240;1282;22538;-76
2023/07/16 02:30:05;;;;;;;6.50;4.90;;;;;;;20.82;70.76;97619.85;106319;1282;22537;-76
2023/07/16 02:32:33;;;;;;;6.00;4.80;;;;;;;20.76;70.93;97617.98;106497;1282;22538;-76
2023/07/16 02:35:02;;;;;;;8.60;5.60;;;;;;;20.65;70.95;97618.55;106347;1282;25423;-76
2023/07/16 02:37:29;;;;;;;6.70;5.40;;;;;;;20.59;71.12;97616.60;106451;1282;24499;-76
2023/07/16 02:39:57;;;;;;;6.70;5.50;;;;;;;20.55;70.86;97619.36;106331;1282;22546;-76
2023/07/16 02:42:24;;;;;;;9.30;5.10;;;;;;;20.53;70.91;97622.29;106318;1282;22581;-77
2023/07/16 02:44:51;;;;;;;7.20;5.30;;;;;;;20.50;71.33;97616.73;106381;1282;22550;-76
2023/07/16 02:47:17;;;;;;;5.40;4.20;;;;;;;20.47;71.68;97618.98;106287;1281;26674;-79
2023/07/16 02:49:44;;;;;;;7.80;4.00;;;;;;;20.48;71.92;97619.16;106317;1282;22570;-76
2023/07/16 02:52:11;;;;;;;6.40;4.70;;;;;;;20.54;72.14;97617.68;106301;1282;25465;-76
2023/07/16 02:54:37;;;;;;;5.90;4.50;;;;;;;20.60;71.97;97616.38;106248;1282;25289;-75
2023/07/16 02:57:05;;;;;;;5.80;4.00;;;;;;;20.65;71.99;97617.60;106262;1282;22492;-76
2023/07/16 02:59:32;;;;;;;11.30;5.00;;;;;;;20.73;71.90;97623.65;106200;1282;22611;-76
2023/07/16 03:01:58;;;;;;;6.00;4.70;;;;;;;20.79;71.90;97618.55;106239;1282;22551;-75
2023/07/16 03:04:25;;;;;;;8.70;5.20;;;;;;;20.82;71.72;97623.21;106343;1282;22584;-77
2023/07/16 03:06:52;;;;;;;5.50;4.90;;;;;;;20.83;71.70;97627.54;106714;1282;22544;-77
2023/07/16 03:09:18;;;;;;;7.50;5.20;;;;;;;20.82;71.67;97629.23;106307;1282;22604;-76
2023/07/16 03:11:45;;;;;;;4.40;4.00;;;;;;;20.80;71.54;97631.10;106186;1282;24351;-76
2023/07/16 03:14:12;;;;;;;4.70;3.90;;;;;;;20.78;71.86;97633.48;106324;1282;22560;-76
2023/07/16 03:16:38;;;;;;;5.20;4.60;;;;;;;20.78;72.09;97630.44;106353;1282;22616;-76
2023/07/16 03:19:07;;;;;;;5.10;4.00;;;;;;;20.81;72.30;97628.20;106324;1282;25363;-76
2023/07/16 03:21:33;;;;;;;4.90;3.70;;;;;;;20.82;71.76;97630.95;106301;1282;23872;-76
2023/07/16 03:24:00;;;;;;;6.30;4.80;;;;;;;20.81;71.67;97631.82;106294;1282;25361;-78
2023/07/16 03:26:26;;;;;;;6.30;4.30;;;;;;;20.76;71.67;97636.67;106285;1282;25244;-78
2023/07/16 03:28:53;;;;;;;7.80;4.90;;;;;;;20.70;71.68;97638.48;106305;1282;22694;-77
2023/07/16 03:31:20;;;;;;;5.10;4.60;;;;;;;20.66;71.98;97637.48;106532;1282;22561;-76
2023/07/16 03:33:47;;;;;;;6.20;6.30;;;;;;;20.65;72.27;97633.88;106295;1282;24209;-76
2023/07/16 03:36:15;;;;;;;6.50;4.30;;;;;;;20.69;72.47;97636.19;106284;1282;22538;-76
2023/07/16 03:38:42;;;;;;;7.60;4.30;;;;;;;20.68;72.07;97632.74;106301;1282;22607;-76
2023/07/16 03:41:08;;;;;;;7.00;4.30;;;;;;;20.70;72.64;97630.81;106310;1282;22772;-76
2023/07/16 03:43:35;;;;;;;6.90;4.10;;;;;;;20.78;72.80;97635.52;106207;1282;22557;-75
2023/07/16 03:46:14;;;;;;;6.40;4.50;;;;;;;20.85;72.52;97632.02;106310;1282;22548;-75
2023/07/16 03:48:42;;;;;;;5.50;4.70;;;;;;;20.93;72.61;97629.52;106298;1282;22552;-76
2023/07/16 03:51:08;;;;;;;6.90;5.20;;;;;;;20.98;72.33;97632.08;106302;1282;25571;-76
2023/07/16 03:53:35;;;;;;;6.30;5.10;;;;;;;21.00;72.40;97632.42;106313;1282;24725;-76
2023/07/16 03:56:02;;;;;;;6.80;4.60;;;;;;;21.03;72.29;97636.38;106333;1282;25303;-76
2023/07/16 03:58:29;;;;;;;7.50;4.50;;;;;;;21.05;72.06;97639.90;106306;1282;25415;-75
2023/07/16 04:00:56;;;;;;;4.90;4.10;;;;;;;21.08;72.29;97639.79;106346;1282;25410;-75
2023/07/16 04:03:22;;;;;;;5.30;4.50;;;;;;;21.13;72.09;97637.66;106320;1282;25394;-75
2023/07/16 04:05:49;;;;;;;6.60;5.40;;;;;;;21.21;72.38;97637.91;106370;1282;25429;-75
2023/07/16 04:08:16;;;;;;;5.20;4.20;;;;;;;21.33;72.26;97640.30;106317;1282;24206;-75
2023/07/16 04:10:43;;;;;;;4.70;3.70;;;;;;;21.44;72.15;97637.06;106311;1282;23129;-76
2023/07/16 04:13:09;;;;;;;5.70;4.20;;;;;;;21.52;72.26;97640.44;106211;1282;22537;-75
2023/07/16 04:15:36;;;;;;;5.40;4.20;;;;;;;21.60;71.81;97648.58;106322;1282;25262;-74
2023/07/16 04:18:03;;;;;;;7.70;5.00;;;;;;;21.66;72.00;97654.20;106277;1282;25380;-74
2023/07/16 04:20:30;;;;;;;7.80;4.60;;;;;;;21.75;72.08;97659.36;106317;1282;23623;-76
2023/07/16 04:22:57;;;;;;;6.00;4.90;;;;;;;21.82;71.72;97659.66;106321;1282;22764;-75
2023/07/16 04:25:23;;;;;;;8.10;5.10;;;;;;;21.84;71.61;97667.13;106371;1282;24340;-75
2023/07/16 04:27:50;;;;;;;7.10;5.40;;;;;;;21.84;71.59;97667.83;106321;1282;22796;-75
2023/07/16 04:30:17;;;;;;;6.60;5.50;;;;;;;21.85;71.50;97670.66;106328;1282;25241;-76
2023/07/16 04:32:43;;;;;;;7.10;5.80;;;;;;;21.86;71.31;97675.45;106325;1282;24252;-74
2023/07/16 04:35:10;;;;;;;6.80;5.40;;;;;;;21.87;71.64;97679.38;106320;1282;22666;-76
2023/07/16 04:37:37;;;;;;;7.10;5.10;;;;;;;21.94;71.59;97680.84;106300;1282;22562;-76
2023/07/16 04:40:04;;;;;;;5.80;4.90;;;;;;;22.03;71.75;97681.16;106374;1282;22562;-76
2023/07/16 04:42:31;;;;;;;5.20;4.10;;;;;;;22.15;71.86;97681.50;106298;1282;22537;-76
2023/07/16 04:44:57;;;;;;;6.80;4.30;;;;;;;22.27;71.69;97683.33;106193;1282;183239;-76
2023/07/16 04:47:24;;;;;;;7.20;4.80;;;;;;;22.39;71.80;97683.89;106463;1282;25489;-75
2023/07/16 04:49:51;;;;;;;8.00;4.50;;;;;;;22.49;71.78;97685.91;106305;1282;22560;-75
2023/07/16 04:52:17;;;;;;;5.90;5.10;;;;;;;22.60;71.67;97686.92;106414;1282;23638;-75
2023/07/16 04:54:44;;;;;;;6.70;4.80;;;;;;;22.72;71.49;97694.76;106208;1282;22858;-76
2023/07/16 04:57:11;;;;;;;5.10;4.00;;;;;;;22.81;71.32;97698.41;106306;1282;26782;-76
2023/07/16 04:59:37;;;;;;;6.10;4.60;;;;;;;22.94;71.13;97703.98;106352;1282;25312;-75
2023/07/16 05:02:05;;;;;;;5.90;4.10;;;;;;;23.05;71.01;97700.68;106395;1282;24244;-75
2023/07/16 05:04:35;;;;;;;7.10;4.60;;;;;;;23.15;70.87;97701.11;106476;1282;25414;-76
2023/07/16 05:07:02;;;;;;;9.80;4.60;;;;;;;23.27;70.57;97700.77;106425;1282;25428;-75
2023/07/16 05:09:30;;;;;;;6.50;4.70;;;;;;;23.37;70.38;97704.33;106228;1282;25345;-75
2023/07/16 05:11:56;;;;;;;8.50;4.60;;;;;;;23.46;70.16;97709.23;106349;1282;24566;-75
2023/07/16 05:14:27;;;;;;;9.70;5.80;;;;;;;23.57;70.06;97712.64;106403;1282;22663;-75
2023/07/16 05:16:55;;;;;;;7.20;4.40;;;;;;;23.68;69.80;97714.86;106427;1282;25433;-75
2023/07/16 05:19:23;;;;;;;6.20;5.10;;;;;;;23.77;69.65;97717.18;106362;1282;25265;-75
2023/07/16 05:21:49;;;;;;;6.70;4.60;;;;;;;23.86;69.17;97715.46;106234;1282;25346;-75
2023/07/16 05:24:16;;;;;;;5.30;4.60;;;;;;;23.94;68.92;97715.48;106326;1282;22689;-75
2023/07/16 05:26:42;;;;;;;5.30;4.60;;;;;;;24.04;68.65;97716.59;106329;1282;24396;-75
2023/07/16 05:29:09;;;;;;;7.20;4.30;;;;;;;24.13;68.57;97719.02;106402;1282;24357;-74
2023/07/16 05:31:36;;;;;;;5.90;5.10;;;;;;;24.22;68.39;97717.61;106399;1282;24005;-75
2023/07/16 05:34:02;;;;;;;5.50;4.30;;;;;;;24.33;68.26;97717.52;106409;1282;24398;-75
2023/07/16 05:36:29;;;;;;;6.00;4.80;;;;;;;24.43;67.99;97716.36;106339;1282;25407;-75
2023/07/16 05:38:56;;;;;;;6.90;4.80;;;;;;;24.53;67.78;97716.20;106384;1282;24220;-75
2023/07/16 05:41:22;;;;;;;5.80;4.60;;;;;;;24.59;67.24;97713.91;106330;1282;22551;-74
2023/07/16 05:43:50;;;;;;;8.70;5.30;;;;;;;24.67;67.23;97718.54;106411;1282;25436;-75
2023/07/16 05:46:17;;;;;;;8.90;4.80;;;;;;;24.74;66.67;97714.42;106403;1282;25442;-75
2023/07/16 05:48:44;;;;;;;4.60;3.90;;;;;;;24.79;66.66;97717.81;106389;1282;22558;-75
2023/07/16 05:51:10;;;;;;;5.90;4.40;;;;;;;24.88;66.38;97718.27;106404;1282;23973;-75
2023/07/16 05:53:37;;;;;;;5.40;4.50;;;;;;;24.97;66.10;97719.96;106457;1282;24204;-75
2023/07/16 05:56:04;;;;;;;7.00;5.00;;;;;;;25.06;65.52;97726.86;106394;1282;22637;-75
2023/07/16 05:58:30;;;;;;;9.10;5.90;;;;;;;25.12;65.18;97731.19;106434;1282;25433;-76
2023/07/16 06:00:57;;;;;;;7.00;4.50;;;;;;;25.19;64.88;97726.85;106321;1282;22561;-76
2023/07/16 06:03:23;;;;;;;6.30;4.60;;;;;;;25.26;64.80;97726.50;106359;1282;23919;-76
2023/07/16 06:05:50;;;;;;;5.50;4.30;;;;;;;25.33;64.46;97729.30;106354;1282;22540;-76
2023/07/16 06:08:17;;;;;;;6.60;4.50;;;;;;;25.44;64.53;97730.59;106326;1282;22663;-76
2023/07/16 06:10:43;;;;;;;7.70;4.30;;;;;;;25.56;64.24;97731.01;106382;1282;25319;-76
2023/07/16 06:13:10;;;;;;;6.10;4.70;;;;;;;25.67;63.93;97734.73;106390;1261;24253;-76
2023/07/16 06:15:36;;;;;;;7.80;4.30;;;;;;;25.77;63.81;97735.70;106416;1282;25292;-76
2023/07/16 06:18:03;;;;;;;5.30;4.10;;;;;;;25.88;63.46;97738.42;106348;1282;22680;-76
2023/07/16 06:20:30;;;;;;;6.00;4.00;;;;;;;25.98;63.15;97741.27;106383;1282;25428;-77
2023/07/16 06:22:57;;;;;;;6.90;4.50;;;;;;;26.08;62.88;97743.50;106347;1282;22985;-76
2023/07/16 06:25:23;;;;;;;6.20;4.20;;;;;;;26.18;62.59;97746.58;106404;1282;22657;-77
2023/07/16 06:27:50;;;;;;;8.10;4.70;;;;;;;26.24;62.00;97752.04;106397;1282;25425;-77
2023/07/16 06:30:16;;;;;;;8.60;4.50;;;;;;;26.29;61.82;97752.79;106383;1282;25368;-75
2023/07/16 06:32:43;;;;;;;7.20;5.00;;;;;;;26.35;61.15;97753.54;106363;1282;23770;-75
2023/07/16 06:35:10;;;;;;;7.30;4.70;;;;;;;26.40;61.29;97756.50;106390;1282;22752;-76
2023/07/16 06:37:36;;;;;;;7.30;4.50;;;;;;;26.46;60.82;97753.83;106394;1282;25321;-76
2023/07/16 06:40:05;;;;;;;8.00;4.70;;;;;;;26.52;61.03;97758.31;106341;1282;22588;-77
2023/07/16 06:42:32;;;;;;;8.20;4.70;;;;;;;26.58;60.77;97762.84;106457;1282;24391;-76
2023/07/16 06:44:58;;;;;;;6.30;5.40;;;;;;;26.67;60.65;97763.78;106397;1282;24096;-76
2023/07/16 06:47:25;;;;;;;7.70;4.90;;;;;;;26.76;60.16;97768.27;106363;1282;22756;-76
2023/07/16 06:49:52;;;;;;;5.20;4.70;;;;;;;26.82;59.66;97773.04;106480;1282;22603;-77
2023/07/16 06:52:20;;;;;;;6.30;4.70;;;;;;;26.88;59.21;97775.73;106384;1282;25128;-77
2023/07/16 06:54:46;;;;;;;6.80;4.60;;;;;;;26.94;59.50;97780.27;106357;1282;25256;-76
2023/07/16 06:57:14;;;;;;;6.00;4.80;;;;;;;27.01;59.35;97789.04;106410;1282;25477;-77
2023/07/16 06:59:40;;;;;;;6.70;4.90;;;;;;;27.08;58.77;97797.35;106405;1282;22539;-77
2023/07/16 07:02:08;;;;;;;9.10;4.90;;;;;;;27.13;58.02;97802.98;106389;1282;22639;-78
2023/07/16 07:04:36;;;;;;;8.10;4.80;;;;;;;27.18;58.12;97808.34;106738;1282;23038;-76
2023/07/16 07:07:03;;;;;;;6.10;4.30;;;;;;;27.20;56.93;97809.35;106351;1282;23100;-76
2023/07/16 07:09:29;;;;;;;6.00;4.30;;;;;;;27.24;57.51;97815.77;106454;1282;25298;-75
2023/07/16 07:11:56;;;;;;;8.30;4.60;;;;;;;27.26;55.32;97819.39;106460;1282;22540;-76
2023/07/16 07:14:22;;;;;;;6.10;4.60;;;;;;;27.21;55.15;97818.90;106348;1282;22649;-76
2023/07/16 07:16:50;;;;;;;8.40;4.50;;;;;;;27.14;55.68;97822.09;106825;1282;22603;-77
2023/07/16 07:19:17;;;;;;;6.60;4.60;;;;;;;27.13;55.44;97825.02;106376;1282;23999;-76
2023/07/16 07:21:43;;;;;;;6.80;4.40;;;;;;;27.11;55.13;97829.15;106497;1282;24270;-77
2023/07/16 07:24:10;;;;;;;7.40;4.50;;;;;;;27.15;55.26;97835.30;106400;1282;22537;-77
2023/07/16 07:26:36;;;;;;;11.20;4.80;;;;;;;27.25;55.10;97843.74;106431;1282;25352;-79
2023/07/16 07:29:03;;;;;;;7.40;4.70;;;;;;;27.34;55.07;97848.08;106783;1282;22629;-77
2023/07/16 07:31:30;;;;;;;6.90;4.00;;;;;;;27.45;54.40;97853.02;106758;1276;22540;-78
2023/07/16 07:33:57;;;;;;;7.50;4.70;;;;;;;27.53;53.90;97855.70;106762;1282;25349;-77
2023/07/16 07:36:23;;;;;;;7.20;4.50;;;;;;;27.60;53.07;97855.14;106732;1280;23950;-77
2023/07/16 07:38:50;;;;;;;6.20;4.60;;;;;;;27.66;52.83;97855.70;106307;1282;22545;-77
2023/07/16 07:41:17;;;;;;;8.60;4.70;;;;;;;27.72;52.32;97858.09;106524;1282;22638;-78
2023/07/16 07:43:43;;;;;;;9.70;5.30;;;;;;;27.74;52.38;97858.68;106926;1268;24266;-77
2023/07/16 07:46:10;;;;;;;10.00;4.60;;;;;;;27.79;52.44;97861.98;106386;1282;22653;-78
2023/07/16 07:48:37;;;;;;;9.00;4.80;;;;;;;27.82;52.48;97860.37;106329;1282;22601;-77
2023/07/16 07:51:05;;;;;;;9.30;5.00;;;;;;;27.74;52.08;97850.89;106575;1277;22827;-78
2023/07/16 07:53:31;;;;;;;7.90;4.70;;;;;;;27.90;52.28;97862.71;106737;1282;22547;-78
2023/07/16 07:55:58;;;;;;;6.10;4.80;;;;;;;28.00;52.33;97859.98;106703;1262;22543;-79
2023/07/16 07:58:25;;;;;;;13.00;5.10;;;;;;;28.10;52.60;97861.90;106318;1282;24119;-77
2023/07/16 08:00:51;;;;;;;7.90;4.40;;;;;;;28.21;52.19;97860.17;106236;1282;24312;-78
2023/07/16 08:03:18;;;;;;;7.40;5.00;;;;;;;28.29;51.76;97859.98;106338;1260;25470;-78
2023/07/16 08:05:49;;;;;;;8.10;4.90;;;;;;;28.31;51.71;97857.89;106388;1282;22603;-79
2023/07/16 08:08:15;;;;;;;9.50;4.90;;;;;;;28.38;52.38;97860.88;106832;1282;22571;-78
2023/07/16 08:10:43;;;;;;;8.90;5.50;;;;;;;28.54;51.98;97860.73;106323;1282;25423;-80
2023/07/16 08:13:09;;;;;;;9.80;4.80;;;;;;;28.63;51.27;97869.30;106761;1261;22638;-79
2023/07/16 08:15:36;;;;;;;8.40;4.50;;;;;;;28.65;50.82;97865.07;106391;1276;23465;-79
2023/07/16 08:18:03;;;;;;;6.80;4.30;;;;;;;28.72;51.10;97859.27;106762;1282;23313;-80
2023/07/16 08:20:29;;;;;;;6.60;3.90;;;;;;;28.88;50.40;97857.48;106760;1282;25377;-79
2023/07/16 08:22:56;;;;;;;7.70;4.10;;;;;;;28.91;48.48;97855.37;106749;1277;22554;-80
2023/07/16 08:25:23;;;;;;;8.10;4.00;;;;;;;29.02;48.47;97860.20;106801;1277;22555;-80
2023/07/16 08:27:50;;;;;;;7.70;4.60;;;;;;;29.04;47.30;97855.66;106414;1278;22543;-77
2023/07/16 08:30:17;;;;;;;6.40;4.10;;;;;;;29.06;47.19;97850.00;106788;1282;22654;-76
2023/07/16 08:32:43;;;;;;;7.30;4.30;;;;;;;29.12;47.23;97847.14;106473;1282;24327;-77
2023/07/16 08:35:16;;;;;;;6.00;4.10;;;;;;;29.23;47.22;97856.91;106470;1282;25454;-77
2023/07/16 08:37:43;;;;;;;7.30;3.80;;;;;;;29.25;46.32;97860.20;106438;1282;25289;-77
2023/07/16 08:40:14;;;;;;;6.60;3.90;;;;;;;29.25;46.26;97860.14;106329;1282;22551;-77
2023/07/16 08:42:44;;;;;;;7.20;3.90;;;;;;;29.31;45.63;97861.60;106961;1282;24241;-77
2023/07/16 08:45:12;;;;;;;4.80;3.70;;;;;;;29.33;45.07;97863.86;106426;1282;23013;-77
2023/07/16 08:47:39;;;;;;;10.10;4.70;;;;;;;29.29;44.16;97871.62;106430;1282;24203;-79
2023/07/16 08:50:06;;;;;;;7.30;3.90;;;;;;;29.34;44.90;97865.02;106875;1282;22564;-79
2023/07/16 08:52:33;;;;;;;8.20;4.10;;;;;;;29.46;44.39;97858.63;106414;1282;22830;-78
2023/07/16 08:54:59;;;;;;;6.00;4.10;;;;;;;29.52;44.50;97857.15;106614;1282;25297;-77
2023/07/16 08:57:27;;;;;;;6.80;4.20;;;;;;;29.54;44.32;97854.34;106927;1282;22540;-77
2023/07/16 08:59:55;;;;;;;8.10;4.70;;;;;;;29.60;44.79;97855.02;106980;1282;22650;-77
2023/07/16 09:02:21;;;;;;;8.70;4.50;;;;;;;29.66;44.64;97857.38;106620;1282;23964;-78
2023/07/16 09:04:52;;;;;;;6.90;4.70;;;;;;;29.76;44.27;97860.35;106460;1282;22544;-77
2023/07/16 09:07:19;;;;;;;8.60;5.50;;;;;;;29.86;44.52;97858.48;106870;1282;22543;-77
2023/07/16 09:09:58;;;;;;;9.50;4.90;;;;;;;29.82;44.58;97857.69;106890;1264;23910;-78
2023/07/16 09:12:26;;;;;;;9.50;5.70;;;;;;;29.82;45.09;97857.54;106904;1282;22660;-79
2023/07/16 09:14:53;;;;;;;9.00;5.40;;;;;;;29.85;45.25;97853.58;107012;1282;22715;-79
2023/07/16 09:17:24;;;;;;;7.30;4.70;;;;;;;29.92;45.41;97848.03;106928;1282;22536;-79
2023/07/16 09:19:52;;;;;;;7.30;5.00;;;;;;;29.91;45.59;97843.23;108326;1282;24421;-79
2023/07/16 09:22:20;;;;;;;10.00;5.90;;;;;;;29.99;45.90;97844.48;107336;1275;22540;-80
2023/07/16 09:24:47;;;;;;;9.20;5.80;;;;;;;30.09;46.45;97842.27;106438;1277;22540;-79
2023/07/16 09:27:14;;;;;;;9.20;6.00;;;;;;;30.24;46.25;97851.80;106826;1282;24267;-78
2023/07/16 09:29:40;;;;;;;7.60;5.80;;;;;;;30.30;46.21;97848.74;106800;1265;24286;-78
2023/07/16 09:32:07;;;;;;;9.40;5.80;;;;;;;30.28;46.20;97853.64;106809;1267;22696;-78
2023/07/16 09:34:34;;;;;;;10.50;6.00;;;;;;;30.25;46.16;97850.02;106742;1282;24263;-79
2023/07/16 09:37:02;;;;;;;8.80;6.50;;;;;;;30.27;46.52;97848.17;106805;1282;25422;-78
2023/07/16 09:39:31;;;;;;;9.80;5.50;;;;;;;30.34;46.57;97843.34;106742;1282;22652;-78
2023/07/16 09:41:58;;;;;;;6.90;6.00;;;;;;;30.34;46.63;97831.16;106464;1282;22597;-79
2023/07/16 09:44:24;;;;;;;8.50;6.30;;;;;;;30.45;46.49;97842.42;106764;1282;24420;-78
2023/07/16 09:46:51;;;;;;;7.80;6.60;;;;;;;30.35;46.65;97844.17;106876;1282;22593;-78
2023/07/16 09:49:18;;;;;;;11.80;6.20;;;;;;;30.46;47.33;97848.45;106781;1282;22570;-79
2023/07/16 09:51:45;;;;;;;10.80;6.30;;;;;;;30.64;47.38;97844.20;106627;1276;24228;-79
2023/07/16 09:54:15;;;;;;;8.20;6.50;;;;;;;30.88;47.06;97849.77;106607;1275;22506;-78
2023/07/16 09:56:52;;;;;;;12.70;7.30;;;;;;;30.98;46.13;97852.13;106689;1282;22675;-77
2023/07/16 09:59:24;;;;;;;9.20;7.00;;;;;;;30.94;45.94;97851.44;106472;1277;22548;-80
2023/07/16 10:01:52;;;;;;;9.40;7.50;;;;;;;30.96;46.10;97854.40;106761;1277;23979;-80
2023/07/16 10:04:20;;;;;;;11.90;7.50;;;;;;;30.93;45.96;97864.90;106817;1275;24231;-79
2023/07/16 10:06:59;;;;;;;8.70;7.50;;;;;;;30.92;46.25;97861.02;107281;1276;22555;-79
2023/07/16 10:09:40;;;;;;;9.40;7.10;;;;;;;30.89;45.78;97864.37;108349;1274;22639;-79
2023/07/16 10:12:18;;;;;;;9.50;7.40;;;;;;;30.72;46.30;97862.98;108431;1282;23437;-79
2023/07/16 10:14:44;;;;;;;10.20;7.60;;;;;;;30.79;46.47;97862.85;108440;1282;22546;-79
2023/07/16 10:17:15;;;;;;;9.00;8.00;;;;;;;30.87;46.21;97861.08;109220;1282;22825;-79
2023/07/16 10:19:58;;;;;;;9.40;7.10;;;;;;;30.84;46.78;97856.55;106940;1282;25377;-77
2023/07/16 10:22:47;;;;;;;8.30;7.00;;;;;;;30.96;46.92;97851.39;106870;1282;22545;-78
2023/07/16 10:25:17;;;;;;;9.00;7.00;;;;;;;31.11;46.61;97850.91;106934;1282;23314;-78
2023/07/16 10:27:45;;;;;;;9.40;7.10;;;;;;;31.13;46.43;97849.98;106881;1282;25349;-78
2023/07/16 10:30:12;;;;;;;8.70;7.30;;;;;;;31.22;46.29;97849.03;106868;1282;22546;-79
2023/07/16 10:32:39;;;;;;;8.70;7.80;;;;;;;31.30;46.16;97847.66;106821;1282;22561;-79
2023/07/16 10:35:10;;;;;;;9.10;8.00;;;;;;;31.33;46.01;97846.30;106862;1274;23041;-79
2023/07/16 10:37:38;;;;;;;10.40;8.10;;;;;;;31.46;46.13;97851.69;106803;1282;23443;-79
2023/07/16 10:40:11;;;;;;;11.00;8.40;;;;;;;31.47;46.75;97853.81;106804;1282;22554;-79
2023/07/16 10:42:41;;;;;;;12.30;8.20;;;;;;;31.33;47.09;97853.06;106852;1274;25361;-79
2023/07/16 10:45:09;;;;;;;9.40;8.50;;;;;;;31.34;46.82;97854.46;106838;1282;25246;-78
2023/07/16 10:47:37;;;;;;;10.80;8.70;;;;;;;31.34;45.99;97849.84;106796;1282;24218;-78
2023/07/16 10:50:07;;;;;;;10.30;8.60;;;;;;;31.49;45.90;97853.03;106861;1282;22540;-80
2023/07/16 10:52:35;;;;;;;9.50;8.60;;;;;;;31.61;45.55;97850.14;106786;1282;22540;-79
2023/07/16 10:55:02;;;;;;;9.40;8.50;;;;;;;31.66;45.59;97856.45;106671;1282;25359;-78
2023/07/16 10:57:29;;;;;;;12.70;9.60;;;;;;;31.63;45.52;97854.15;106741;1264;24200;-79
2023/07/16 10:59:58;;;;;;;12.10;8.80;;;;;;;31.74;45.56;97851.77;106739;1282;22497;-79
2023/07/16 11:02:26;;;;;;;10.00;8.40;;;;;;;31.92;45.17;97849.67;106603;1261;22566;-79
2023/07/16 11:04:53;;;;;;;10.80;8.00;;;;;;;32.14;44.43;97848.08;106799;1282;22564;-79
2023/07/16 11:07:21;;;;;;;9.90;8.40;;;;;;;32.35;44.43;97840.17;106582;1282;22733;-78
2023/07/16 11:09:50;;;;;;;11.10;8.90;;;;;;;32.47;43.71;97846.13;106797;1282;22551;-78
2023/07/16 11:12:20;;;;;;;10.60;8.50;;;;;;;32.46;44.15;97843.11;106838;1282;22540;-78
2023/07/16 11:14:49;;;;;;;12.60;8.20;;;;;;;32.45;44.29;97843.64;106788;1282;24395;-78
2023/07/16 11:17:16;;;;;;;12.10;8.90;;;;;;;32.47;44.62;97846.77;106751;1282;22553;-78
2023/07/16 11:19:50;;;;;;;9.50;8.60;;;;;;;32.49;43.89;97848.30;106365;1282;25413;-78
2023/07/16 11:22:17;;;;;;;10.70;8.60;;;;;;;32.42;44.45;97849.42;106350;1282;22528;-78
2023/07/16 11:24:51;;;;;;;9.60;8.50;;;;;;;32.50;44.17;97845.71;106385;1282;25845;-77
2023/07/16 11:27:20;;;;;;;9.50;7.60;;;;;;;32.55;43.72;97843.55;106612;1282;22605;-78